»·PEaware :: ACA799 CYYZ-KLAX

ACA799 :: CYYZ-KLAX

FLIGHT INFORMATION

Flight Status: Arrived
Operator:
Air Canada
More flights by this operator :: More flights under this callsign
Pilot: Chris A. (85)
Aircraft: BOEING 747-400 (WINGLETS)
(B744)
More flights by this aircraft type
Origin: CYYZ Toronto/Pearson Intl
Canada
Destination: KLAX Los Angeles Intl
United States
More flights between these airports :: More routes between these airports
Route: TRNTO2/23 ARTHR V320 ECK JOT DSM LNK J146 GLD PUB J64 RSK TNP SEAVU2
File this flight plan on PilotEdge
Remarks: PBN / A1B1D1O1S2 NAV / RNVD1E2A1 DOF / 140830 REG / CGMWW EET / KZOB0020 KZAU0038 KZMP0130 KZDV0203 KZAB0323 KZLA0339 SEL / ABEQ RMK / TCAS EQPT
Altitude:
(Current/Filed)
38,000ft
Speed:
(Current/Filed)
504kts
Departed: 30-Aug-14 12:27 PM
Arrived: 30-Aug-14 01:23 PM
Distance/Time
Traveled:
1885nm/0:56
Distance/Time
To Go:
Arrived

Flight Plot

Page will automatically refresh every two minutes.


Map Options




Map Legend


Flown Route
Filed Route
Departure Airport
Arrival Airport
Navaid (VOR, NDB)
Fix

Horizontal Profiles

Position Reports

Time Latitude Longitude Heading Altitude Ground
Speed
30-Aug-14 12:25 35.699410 -111.384345 249 38274ft 470kts
30-Aug-14 12:26 35.648822 -111.532957 249 38278ft 468kts
30-Aug-14 12:27 35.598634 -111.681091 249 38281ft 468kts
30-Aug-14 12:28 35.548009 -111.828949 249 38327ft 468kts
30-Aug-14 12:29 35.497368 -111.976671 249 38341ft 468kts
30-Aug-14 12:30 35.446871 -112.124330 249 38358ft 469kts
30-Aug-14 12:31 35.395589 -112.271816 249 38365ft 471kts
30-Aug-14 12:32 35.344384 -112.419987 249 38366ft 470kts
30-Aug-14 12:33 35.292441 -112.567633 248 38348ft 471kts
30-Aug-14 12:34 35.240264 -112.715478 249 38289ft 473kts
30-Aug-14 12:35 35.188261 -112.863673 248 38243ft 473kts
30-Aug-14 12:36 35.135816 -113.010969 248 38198ft 473kts
30-Aug-14 12:37 35.083380 -113.159022 248 38157ft 473kts
30-Aug-14 12:38 35.030505 -113.306492 248 38118ft 473kts
30-Aug-14 12:39 34.977313 -113.453906 248 38085ft 473kts
30-Aug-14 12:40 34.924294 -113.600971 247 38054ft 473kts
30-Aug-14 12:41 34.870887 -113.747344 247 38025ft 473kts
30-Aug-14 12:42 34.817592 -113.894236 247 37993ft 473kts
30-Aug-14 12:43 34.763879 -114.040704 247 37892ft 472kts
30-Aug-14 12:44 34.709859 -114.186918 247 37850ft 473kts
30-Aug-14 12:45 34.656138 -114.333281 247 37820ft 473kts
30-Aug-14 12:46 34.601773 -114.479185 247 37810ft 473kts
30-Aug-14 12:47 34.547495 -114.624647 247 37811ft 474kts
30-Aug-14 12:48 34.492839 -114.770458 247 37818ft 474kts
30-Aug-14 12:49 34.437933 -114.916189 246 37826ft 475kts
30-Aug-14 12:50 34.383074 -115.062262 246 37837ft 476kts
30-Aug-14 12:51 34.327438 -115.208377 246 37850ft 478kts
30-Aug-14 12:52 34.271856 -115.354653 246 36813ft 475kts
30-Aug-14 12:53 34.216976 -115.497837 245 35005ft 463kts
30-Aug-14 12:54 34.163060 -115.637570 245 33198ft 450kts
30-Aug-14 12:55 34.115565 -115.774124 254 31435ft 431kts
30-Aug-14 12:56 34.090943 -115.913643 259 29826ft 416kts
30-Aug-14 12:58 34.070484 -116.050047 259 28220ft 408kts
30-Aug-14 12:59 34.050426 -116.183544 260 26620ft 401kts
30-Aug-14 12:59 34.033884 -116.293322 260 25282ft 395kts
30-Aug-14 13:00 34.014358 -116.423240 260 23687ft 390kts
30-Aug-14 13:01 34.000053 -116.550742 264 22094ft 380kts
30-Aug-14 13:02 33.990001 -116.676286 264 20689ft 372kts
30-Aug-14 13:03 33.979946 -116.800027 264 19476ft 366kts
30-Aug-14 13:04 33.969895 -116.920868 263 18269ft 361kts
30-Aug-14 13:05 33.960023 -117.040829 264 17120ft 355kts
30-Aug-14 13:06 33.950207 -117.159564 264 16533ft 355kts
30-Aug-14 13:07 33.940171 -117.277277 264 15341ft 349kts
30-Aug-14 13:08 33.938394 -117.393163 287 13999ft 345kts
30-Aug-14 13:09 33.975227 -117.496285 293 12435ft 331kts
30-Aug-14 13:10 34.010607 -117.595518 294 10817ft 314kts
30-Aug-14 13:11 34.023505 -117.693636 265 9971ft 287kts
30-Aug-14 13:12 34.013328 -117.787886 268 9109ft 285kts
30-Aug-14 13:13 34.004631 -117.876939 268 7704ft 255kts
30-Aug-14 13:14 33.997110 -117.958721 268 6377ft 236kts
30-Aug-14 13:15 33.989399 -118.036645 267 5327ft 234kts
30-Aug-14 13:16 33.981991 -118.109805 266 4253ft 232kts
30-Aug-14 13:17 33.974325 -118.185040 265 2958ft 221kts
30-Aug-14 13:18 33.966846 -118.258172 264 2214ft 220kts
30-Aug-14 13:19 33.959792 -118.327053 264 1348ft 174kts
30-Aug-14 13:20 33.954732 -118.375656 263 548ft 137kts
30-Aug-14 13:21 33.950647 -118.415923 262 138ft 62kts
30-Aug-14 13:22 33.948693 -118.426653 227 138ft 0kts
30-Aug-14 13:23 33.948692 -118.426654 227 138ft 0kts
30-Aug-14 13:24 33.947941 -118.427452 213 138ft 9kts
30-Aug-14 13:25 33.946562 -118.424999 82 138ft 17kts
30-Aug-14 13:26 33.947138 -118.419406 82 138ft 12kts
30-Aug-14 13:27 33.947790 -118.413874 76 138ft 12kts
30-Aug-14 13:28 33.948423 -118.408133 82 138ft 20kts
30-Aug-14 13:29 33.947899 -118.405566 87 138ft 4kts
30-Aug-14 13:30 33.947712 -118.403861 200 138ft 2kts
30-Aug-14 13:31 33.947322 -118.404006 193 138ft 0kts
30-Aug-14 13:32 33.947320 -118.404007 193 138ft 0kts
30-Aug-14 13:33 33.947320 -118.404007 193 138ft 0kts
30-Aug-14 13:34 33.947320 -118.404007 193 138ft 0kts
30-Aug-14 13:35 33.947320 -118.404007 193 138ft 0kts
30-Aug-14 13:36 33.947320 -118.404007 193 138ft 0kts

Navigation Log

Ident Type
Flight plan parsing failed, navigation log unavailable